createdAt,value
2022-12-20T13:03:19.216Z,1.74
2022-12-20T13:05:11.586Z,2.38
2022-12-20T13:05:42.515Z,2.38
2022-12-20T13:06:13.691Z,2.35
2022-12-20T13:06:44.192Z,2.22
2022-12-20T13:07:14.673Z,2.65
2022-12-20T13:07:46.165Z,2.44
2022-12-20T13:08:16.530Z,2.35
2022-12-20T13:08:47.055Z,2.29
2022-12-20T13:09:17.549Z,2.07
2022-12-20T13:09:48.058Z,2.08
2022-12-20T13:10:18.556Z,1.85
2022-12-20T13:10:49.051Z,2.22
2022-12-20T13:11:20.153Z,1.94
2022-12-20T13:11:57.566Z,2.14
2022-12-20T13:12:22.541Z,2.02
2022-12-20T13:12:52.475Z,2.28
2022-12-20T13:13:23.645Z,1.92
2022-12-20T13:13:54.422Z,2.24
2022-12-20T13:14:24.916Z,2.25
2022-12-20T13:14:55.839Z,2.18
2022-12-20T13:15:26.879Z,1.94
2022-12-20T13:15:57.446Z,2.36
2022-12-20T13:17:02.370Z,2.25
2022-12-20T13:17:12.003Z,2.39
2022-12-20T13:17:29.553Z,2.67
2022-12-20T13:18:00.096Z,2.14
2022-12-20T13:18:30.906Z,2.28
2022-12-20T13:19:01.383Z,2.77
2022-12-20T13:19:32.463Z,2.06
2022-12-20T13:20:03.010Z,2.15
2022-12-20T13:20:33.482Z,1.99
2022-12-20T13:21:44.930Z,2.22
2022-12-20T13:22:15.901Z,2.04
2022-12-20T13:22:46.879Z,2.29
2022-12-20T13:23:17.760Z,2.28
2022-12-20T13:23:48.749Z,2.22
2022-12-20T13:24:19.895Z,2.38
2022-12-20T13:24:50.591Z,2.20
2022-12-20T13:25:26.599Z,1.94
2022-12-20T13:25:52.783Z,1.77
2022-12-20T13:26:22.756Z,2.17
2022-12-20T13:26:53.947Z,2.04
2022-12-20T13:27:24.389Z,1.81
2022-12-20T13:27:55.334Z,2.07
2022-12-20T13:28:26.306Z,1.97
2022-12-20T13:28:56.876Z,1.59
2022-12-20T13:29:27.362Z,2.18
2022-12-20T13:29:58.089Z,2.22
2022-12-20T13:30:28.713Z,2.15
2022-12-20T13:30:59.297Z,2.38
2022-12-20T13:31:30.450Z,2.14
2022-12-20T13:32:00.970Z,2.39
2022-12-20T13:32:32.106Z,2.35
2022-12-20T13:33:02.933Z,2.57
2022-12-20T13:34:14.426Z,2.68
2022-12-20T13:34:45.486Z,2.18
2022-12-20T13:35:15.936Z,2.28
2022-12-20T13:35:47.032Z,2.42
2022-12-20T13:36:17.509Z,2.36
2022-12-20T13:36:48.638Z,2.77
2022-12-20T13:37:19.253Z,2.80
2022-12-20T13:37:54.545Z,2.72
2022-12-20T13:38:21.428Z,2.62
2022-12-20T13:38:51.057Z,2.92
2022-12-20T13:39:21.886Z,2.82
2022-12-20T13:39:52.456Z,2.62
2022-12-20T13:40:23.093Z,3.22
2022-12-20T13:40:53.796Z,2.62
2022-12-20T13:41:26.905Z,2.92
2022-12-20T13:41:56.577Z,2.77
2022-12-20T13:42:26.114Z,2.89
2022-12-20T13:42:56.688Z,2.93
2022-12-20T13:43:27.180Z,2.53
2022-12-20T13:43:57.841Z,2.74
2022-12-20T13:44:28.483Z,3.21
2022-12-20T13:44:59.203Z,3.11
2022-12-20T13:45:29.802Z,2.77
2022-12-20T13:46:00.565Z,2.82
2022-12-20T13:46:31.233Z,2.89
2022-12-20T13:47:42.774Z,3.03
2022-12-20T13:48:13.384Z,2.77
2022-12-20T13:48:43.862Z,2.46
2022-12-20T13:49:14.681Z,3.13
2022-12-20T13:49:45.802Z,2.80
2022-12-20T13:50:57.299Z,2.74
2022-12-20T13:51:28.241Z,2.38
2022-12-20T13:51:59.192Z,2.75
2022-12-20T13:52:30.066Z,3.04
2022-12-20T13:53:01.205Z,3.13
2022-12-20T13:53:31.644Z,3.11
2022-12-20T13:54:02.746Z,3.05
2022-12-20T13:54:33.140Z,3.21
2022-12-20T13:55:04.076Z,3.05
2022-12-20T13:55:34.904Z,3.11
2022-12-20T13:56:05.954Z,2.80
2022-12-20T13:56:36.322Z,3.16
2022-12-20T13:57:07.139Z,3.03
2022-12-20T13:57:38.299Z,2.85
2022-12-20T13:58:08.748Z,2.74
2022-12-20T13:58:39.653Z,2.90
2022-12-20T13:59:10.742Z,2.71
2022-12-20T13:59:41.248Z,2.87
2022-12-20T14:22:59.255Z,3.13
2022-12-20T14:23:26.541Z,2.89
2022-12-20T14:23:56.243Z,2.89
2022-12-20T14:24:26.727Z,3.21
2022-12-20T14:24:57.727Z,3.05
2022-12-20T14:25:28.599Z,3.08
2022-12-20T14:25:59.735Z,3.01
2022-12-20T14:26:30.174Z,2.68
2022-12-20T14:27:01.447Z,2.71
2022-12-20T14:27:31.958Z,2.82
2022-12-20T14:28:03.119Z,2.57
2022-12-20T14:28:33.857Z,3.03
2022-12-20T14:29:04.485Z,3.03
2022-12-20T14:29:35.110Z,2.92
2022-12-20T14:30:05.935Z,2.85
2022-12-20T14:30:36.633Z,2.57
2022-12-20T14:31:48.214Z,2.60
2022-12-20T14:32:18.753Z,2.38
2022-12-20T14:32:49.464Z,2.68
2022-12-20T14:33:20.217Z,2.75
2022-12-20T14:33:50.895Z,2.89
2022-12-20T14:34:27.422Z,2.57
2022-12-20T14:34:52.431Z,2.89
2022-12-20T14:35:23.146Z,2.85
2022-12-20T14:35:53.757Z,2.82
2022-12-20T14:36:24.498Z,2.82
2022-12-20T14:36:55.469Z,3.08
2022-12-20T14:37:26.178Z,2.75
2022-12-20T14:37:56.979Z,2.93
2022-12-20T14:38:27.777Z,2.80
2022-12-20T14:38:58.421Z,2.67
2022-12-20T14:39:29.066Z,2.44
2022-12-20T14:40:00.161Z,2.36
2022-12-20T14:40:30.274Z,2.68
2022-12-20T14:41:00.957Z,2.64
2022-12-20T14:41:31.723Z,2.92
2022-12-20T14:42:02.475Z,2.54
2022-12-20T14:42:33.134Z,2.57
2022-12-20T14:43:04.060Z,2.56
2022-12-20T14:43:34.607Z,2.69
2022-12-20T14:44:05.456Z,2.56
2022-12-20T14:44:36.230Z,2.57
2022-12-20T14:45:06.858Z,2.61
2022-12-20T14:45:37.492Z,2.50
2022-12-20T14:46:08.437Z,2.67
2022-12-20T14:46:43.579Z,2.86
2022-12-20T14:47:10.708Z,2.49
2022-12-20T14:47:41.278Z,2.86
2022-12-20T14:48:11.033Z,2.57
2022-12-20T14:48:41.733Z,2.35
2022-12-20T14:49:12.704Z,2.68
2022-12-20T14:49:42.920Z,2.53
2022-12-20T14:50:13.702Z,3.01
2022-12-20T14:50:44.332Z,2.50
2022-12-20T14:51:15.104Z,2.33
2022-12-20T14:51:45.770Z,2.60
2022-12-20T14:52:59.873Z,2.74
2022-12-20T14:53:30.286Z,2.64
2022-12-20T14:54:01.062Z,2.77
2022-12-20T14:55:06.532Z,2.79
2022-12-20T14:55:10.181Z,2.61
2022-12-20T14:55:32.691Z,2.75
2022-12-20T14:56:01.764Z,2.71
2022-12-20T14:56:32.543Z,2.77
2022-12-20T14:57:03.213Z,2.77
2022-12-20T14:57:33.924Z,2.79
2022-12-20T14:58:04.618Z,2.71
2022-12-20T14:58:35.572Z,2.69
2022-12-20T14:59:06.480Z,2.47
2022-12-20T14:59:37.164Z,2.92
2022-12-20T15:00:07.889Z,2.54
2022-12-20T15:00:38.679Z,3.23
2022-12-20T15:01:09.399Z,2.61
2022-12-20T15:01:44.276Z,2.87
2022-12-20T15:02:11.331Z,2.93
2022-12-20T15:02:41.898Z,3.14
2022-12-20T15:03:12.510Z,2.74
2022-12-20T15:03:43.010Z,2.89
2022-12-20T15:04:13.875Z,2.98
2022-12-20T15:04:44.860Z,2.83
2022-12-20T15:05:15.787Z,2.65
2022-12-20T15:05:46.535Z,2.68
2022-12-20T15:06:17.174Z,2.72
2022-12-20T15:06:47.888Z,2.92
2022-12-20T15:07:24.449Z,2.85
2022-12-20T15:07:48.963Z,2.54
2022-12-20T15:08:19.675Z,2.97
2022-12-20T15:08:50.423Z,2.69
2022-12-20T15:09:21.148Z,2.82
2022-12-20T15:09:51.975Z,3.31
2022-12-20T15:10:22.906Z,3.21
2022-12-20T15:10:53.787Z,3.04
2022-12-20T15:11:24.535Z,3.21
2022-12-20T15:11:55.411Z,2.87
2022-12-20T15:12:26.222Z,3.05
2022-12-20T15:12:56.836Z,2.68
2022-12-20T15:13:27.724Z,2.97
2022-12-20T15:13:58.491Z,2.72
2022-12-20T15:14:29.359Z,2.74
2022-12-20T15:15:17.789Z,3.16
2022-12-20T15:15:31.544Z,2.77
2022-12-20T15:16:01.230Z,2.95
2022-12-20T15:16:32.204Z,2.71
2022-12-20T15:17:02.557Z,2.86
2022-12-20T15:17:33.317Z,2.89
2022-12-20T15:18:03.998Z,2.95
2022-12-20T15:18:34.782Z,2.68
2022-12-20T15:19:05.528Z,2.86
2022-12-20T15:19:41.922Z,2.97
2022-12-20T15:20:07.971Z,2.57
2022-12-20T15:20:37.590Z,3.03
2022-12-20T15:21:08.339Z,2.46
2022-12-20T15:21:38.931Z,3.23
2022-12-20T15:22:09.461Z,3.22
2022-12-20T15:22:40.290Z,3.14
2022-12-20T15:23:10.861Z,3.14
2022-12-20T15:23:41.750Z,3.31
2022-12-20T15:24:12.366Z,3.04
2022-12-20T15:24:43.069Z,2.92
2022-12-20T15:25:13.776Z,3.26
2022-12-20T15:25:45.556Z,2.97
2022-12-20T15:26:15.281Z,3.01
2022-12-20T15:26:45.900Z,3.16
2022-12-20T15:27:16.469Z,3.21
2022-12-20T15:27:46.992Z,3.31
2022-12-20T15:28:18.121Z,3.21
2022-12-20T15:29:29.812Z,3.47
2022-12-20T15:30:00.213Z,3.28
2022-12-20T15:30:31.120Z,3.26
2022-12-20T15:31:02.228Z,3.34
2022-12-20T15:31:34.236Z,3.08
2022-12-20T15:32:03.554Z,3.10
2022-12-20T15:32:34.230Z,2.85
2022-12-20T15:33:04.757Z,3.40
2022-12-20T15:33:35.398Z,2.24
2022-12-20T15:34:05.853Z,2.85
2022-12-20T15:34:37.039Z,2.74
2022-12-20T15:35:07.800Z,2.95
2022-12-20T15:35:38.366Z,3.01
2022-12-20T15:36:09.015Z,2.86
2022-12-20T15:36:39.450Z,2.69
2022-12-20T15:37:51.383Z,2.61
2022-12-20T15:38:40.613Z,2.60
2022-12-20T15:39:11.940Z,2.79
2022-12-20T15:39:24.202Z,2.65
2022-12-20T15:39:55.410Z,2.68
2022-12-20T15:40:25.813Z,2.42
2022-12-20T15:40:56.776Z,2.95
2022-12-20T15:41:27.740Z,2.87
2022-12-20T15:41:58.675Z,2.53
2022-12-20T15:42:30.005Z,2.71
2022-12-20T15:43:00.873Z,2.67
2022-12-20T15:43:35.572Z,2.56
2022-12-20T15:44:03.177Z,2.82
2022-12-20T15:44:32.761Z,2.47
2022-12-20T15:45:03.564Z,2.62
2022-12-20T15:45:34.236Z,2.82
2022-12-20T15:46:05.242Z,2.75
2022-12-20T15:46:35.588Z,2.61
2022-12-20T15:47:06.222Z,2.53
2022-12-20T15:47:36.810Z,2.97
2022-12-20T15:48:07.580Z,2.77
2022-12-20T15:48:38.273Z,2.50
2022-12-20T15:49:09.199Z,2.77
2022-12-20T15:49:44.588Z,2.36
2022-12-20T15:50:11.558Z,3.04
2022-12-20T15:50:41.243Z,2.60
2022-12-20T15:51:11.863Z,2.92
2022-12-20T15:51:42.681Z,2.67
2022-12-20T15:52:13.510Z,2.87
2022-12-20T15:52:44.359Z,2.79
2022-12-20T15:53:15.096Z,2.44
2022-12-20T15:53:45.758Z,2.75
2022-12-20T15:54:16.637Z,2.93
2022-12-20T15:54:47.471Z,2.47
2022-12-20T15:55:18.573Z,2.89
2022-12-20T15:55:48.688Z,2.65
2022-12-20T15:56:19.409Z,2.60
2022-12-20T15:56:50.134Z,2.10
2022-12-20T15:57:21.032Z,2.72
2022-12-20T15:57:51.799Z,2.79
2022-12-20T15:58:22.796Z,2.57
2022-12-20T15:58:53.018Z,2.93
2022-12-20T15:59:59.049Z,2.80
2022-12-20T16:00:42.015Z,2.44
2022-12-20T16:01:08.106Z,2.71
2022-12-20T16:01:40.775Z,2.79
2022-12-20T16:02:09.392Z,2.57
2022-12-20T16:02:40.193Z,2.69
2022-12-20T16:03:11.265Z,2.07
2022-12-20T16:03:42.273Z,2.22
2022-12-20T16:04:12.902Z,2.25
2022-12-20T16:04:42.976Z,2.33
2022-12-20T16:05:13.869Z,2.43
2022-12-20T16:05:44.276Z,2.64
2022-12-20T16:06:14.941Z,2.62
2022-12-20T16:06:45.577Z,2.53
2022-12-20T16:07:16.463Z,2.46
2022-12-20T16:07:46.991Z,2.35
2022-12-20T16:08:18.077Z,2.15
2022-12-20T16:09:29.980Z,2.53
2022-12-20T16:10:00.719Z,2.53
2022-12-20T16:10:31.419Z,2.13
2022-12-20T16:11:02.402Z,2.65
2022-12-20T16:11:33.129Z,2.36
2022-12-20T16:12:03.872Z,2.38
2022-12-20T16:12:34.585Z,2.51
2022-12-20T16:13:05.319Z,2.47
2022-12-20T16:13:36.007Z,2.61
2022-12-20T16:14:06.721Z,2.36
2022-12-20T16:14:37.287Z,2.25
2022-12-20T16:15:08.127Z,2.29
2022-12-20T16:15:38.658Z,1.84
2022-12-20T16:16:09.821Z,2.49
2022-12-20T16:16:40.500Z,2.02
2022-12-20T16:17:11.156Z,1.87
2022-12-20T16:17:41.856Z,1.95
2022-12-20T16:18:12.790Z,1.97
2022-12-20T16:18:43.508Z,2.18
2022-12-20T16:19:14.036Z,2.24
2022-12-20T16:19:44.758Z,1.95
2022-12-20T16:20:15.435Z,2.00
2022-12-20T16:20:46.123Z,2.17
2022-12-20T16:21:17.055Z,2.22
2022-12-20T16:21:47.663Z,1.97
2022-12-20T16:22:18.371Z,2.18
2022-12-20T16:23:30.013Z,2.10
2022-12-20T16:24:00.538Z,1.78
2022-12-20T16:24:31.489Z,1.60
2022-12-20T16:25:02.594Z,1.76
2022-12-20T16:25:33.234Z,1.95
2022-12-20T16:26:04.123Z,2.00
2022-12-20T16:26:34.676Z,2.10
2022-12-20T16:27:05.256Z,2.26
2022-12-20T16:27:35.765Z,2.08
2022-12-20T16:28:06.726Z,2.14
2022-12-20T16:28:37.670Z,2.22
2022-12-20T16:29:08.895Z,2.53
2022-12-20T16:29:39.493Z,2.24
2022-12-20T16:30:10.096Z,2.43
2022-12-20T16:30:40.602Z,2.68
2022-12-20T16:31:11.188Z,2.67
2022-12-20T16:31:41.689Z,2.36
2022-12-20T16:32:12.471Z,2.54
2022-12-20T16:32:43.055Z,2.92
2022-12-20T16:33:13.541Z,2.95
2022-12-20T16:33:44.511Z,2.85
2022-12-20T16:34:15.528Z,2.62
2022-12-20T16:34:46.286Z,2.49
2022-12-20T16:35:17.188Z,2.56
2022-12-20T16:35:47.873Z,2.43
2022-12-20T16:36:18.669Z,2.90
2022-12-20T16:36:49.367Z,2.77
2022-12-20T16:37:20.033Z,2.60
2022-12-20T16:37:50.740Z,2.51
2022-12-20T16:38:21.614Z,2.49
2022-12-20T16:38:52.155Z,2.13
2022-12-20T16:39:22.700Z,2.31
2022-12-20T16:39:53.502Z,2.53
2022-12-20T16:40:24.080Z,2.51
2022-12-20T16:40:54.572Z,2.54
2022-12-20T16:41:25.290Z,2.49
2022-12-20T16:41:55.860Z,2.65
2022-12-20T16:42:26.308Z,2.28
2022-12-20T16:42:57.348Z,2.14
2022-12-20T16:43:27.881Z,2.42
2022-12-20T16:43:58.358Z,2.47
2022-12-20T16:44:29.573Z,2.28
2022-12-20T16:45:00.259Z,2.26
2022-12-20T16:45:30.951Z,2.65
2022-12-20T16:46:01.381Z,2.24
2022-12-20T16:46:32.448Z,2.54
2022-12-20T16:47:03.188Z,2.82
